Weather observations for the past three days for
Schenck Field Airport
Imperial (Metric)
Date Time (cdt) Wind (mph) Vis. (mi.) Weather Sky Cond. Temperature (ºF) Relative Humidity Wind Chill (°F) Heat Index (°F) Pressure Precipitation (in)
Air Dwpt 6 hour altimeter (in) sea level (mb) 1 hr 3 hr 6 hr
Max. Min.
09 15:15 N 18 10.00 Fair CLR 77 33.8 21% 77 29.78 0.0
09 14:55 N 16 10.00 Fair CLR 78.8 35.6 21% 78 29.78 0.0
09 14:35 N 17 10.00 Fair CLR 80.6 37.4 21% 79 29.78 0.0
09 14:15 N 14 10.00 Fair CLR 80.6 37.4 21% 79 29.78 0.0
09 13:55 N 9 10.00 Partly Cloudy SCT120 78.8 37.4 23% 78 29.77 0.0
09 13:35 NE 8 10.00 Mostly Cloudy BKN120 78.8 37.4 23% 78 29.78 0.0
09 13:15 NW 7 G 16 10.00 Partly Cloudy SCT120 78.8 35.6 21% 78 29.78 0.0
09 12:55 W 9 G 16 10.00 A Few Clouds FEW120 80.6 41 24% 79 29.78 0.0
09 12:35 Vrbl 5 G 15 10.00 Fair CLR 80.6 39.2 23% 79 29.78 0.0
09 12:15 NW 10 G 16 10.00 Fair CLR 80.6 35.6 20% 79 29.78 0.0
09 11:55 NW 7 G 16 10.00 Fair CLR 78.8 37.4 23% 78 29.79 0.0
09 11:35 W 9 10.00 Fair CLR 77 41 28% 78 29.78 0.0
09 11:15 Vrbl 7 10.00 Fair CLR 75.2 41 29% 77 29.78 0.0
09 10:55 SW 9 G 17 10.00 Fair CLR 75.2 39.2 27% 77 29.78 0.0
09 10:35 SW 8 10.00 Fair CLR 73.4 41 31% 29.78 0.0
09 10:15 SW 8 10.00 Fair CLR 71.6 39.2 31% 29.79 0.0
09 09:55 Calm 10.00 Fair CLR 68 44.6 43% 29.79 0.0
09 09:35 SE 3 10.00 Fair CLR 66.2 46.4 49% 29.79 0.0
09 09:15 S 6 10.00 Fair CLR 62.6 48.2 60% 29.79 0.0
09 08:55 SW 3 10.00 Fair CLR 60.8 46.4 59% 29.79 0.0
09 08:35 Calm 10.00 Fair CLR 57.2 46.4 67% 29.79 0.0
09 08:15 Calm 10.00 Fair CLR 53.6 44.6 72% 29.79 0.0
09 07:55 Calm 10.00 Fair CLR 51.8 46.4 82% 29.79 0.0
09 07:35 Calm 10.00 Fair CLR 48.2 48.2 100% 29.79 0.0
09 07:15 Calm 10.00 Fair CLR 44.6 44.6 100% 29.78 0.0
09 06:55 Calm 10.00 Fair CLR 44.6 44.6 100% 29.77 0.0
09 06:35 Calm 10.00 Fair CLR 42.8 42.8 100% 29.77 0.0
09 06:15 Calm 10.00 Fair CLR 42.8 42.8 100% 29.76 0.0
09 05:55 S 5 10.00 Fair CLR 41 41 100% 38 29.76 0.0
09 05:35 Calm 10.00 Fair CLR 44.6 44.6 100% 29.76 0.0
09 05:15 Calm 10.00 Fair CLR 44.6 42.8 93% 29.76 0.0
09 04:55 S 3 10.00 Fair CLR 46.4 44.6 93% 29.77 0.0
09 04:35 S 3 10.00 Fair CLR 44.6 42.8 93% 29.76 0.0
09 04:15 Calm 10.00 Fair CLR 48.2 44.6 87% 29.75 0.0
09 03:55 Calm 10.00 Fair CLR 50 42.8 76% 29.75 0.0
09 03:35 SW 3 10.00 Fair CLR 50 44.6 82% 29.75 0.0
09 03:15 Calm 10.00 Fair CLR 51.8 44.6 77% 29.74 0.0
09 02:55 SW 5 10.00 Fair CLR 51.8 44.6 77% 29.74 0.0
09 02:35 SW 7 10.00 Fair CLR 51.8 44.6 77% 29.74 0.0
09 02:15 S 5 10.00 Fair CLR 51.8 46.4 82% 29.75 0.0
09 01:55 S 6 10.00 A Few Clouds FEW035 51.8 44.6 77% 29.75 0.0
09 01:35 SW 6 10.00 Fair CLR 53.6 46.4 77% 29.75 0.0
09 01:15 SW 6 10.00 Fair CLR 53.6 46.4 77% 29.75 0.0
09 00:55 SW 5 10.00 Fair CLR 53.6 46.4 77% 29.75 0.0
09 00:35 SW 5 10.00 Fair CLR 53.6 46.4 77% 29.75 0.0
09 00:15 S 6 10.00 Fair CLR 53.6 46.4 77% 29.75 0.0
08 23:55 S 6 10.00 Fair CLR 53.6 46.4 77% 29.75 0.0
08 23:35 S 6 10.00 Fair CLR 55.4 46.4 72% 29.75 0.0
08 23:15 S 5 10.00 Fair CLR 57.2 46.4 67% 29.75 0.0
08 22:55 SE 3 10.00 Fair CLR 57.2 46.4 67% 29.75 0.0
08 22:35 S 5 10.00 Fair CLR 59 46.4 63% 29.75 0.0
08 22:15 S 7 10.00 Fair CLR 59 46.4 63% 29.75 0.0
08 21:55 S 7 10.00 Fair CLR 57.2 46.4 67% 29.74 0.0
08 21:35 S 7 10.00 A Few Clouds FEW110 59 46.4 63% 29.74 0.0
08 21:15 S 10 10.00 A Few Clouds FEW110 60.8 48.2 63% 29.73 0.0
08 20:55 S 10 10.00 Partly Cloudy FEW080 FEW100 SCT120 60.8 48.2 63% 29.73 0.0
08 20:35 SW 9 10.00 Partly Cloudy FEW080 SCT100 SCT120 64.4 48.2 56% 29.73 0.0
08 20:15 SW 9 10.00 Mostly Cloudy FEW048 FEW070 BKN095 64.4 48.2 56% 29.73 0.0
08 19:55 SW 13 10.00 Partly Cloudy SCT100 66.2 48.2 52% 29.73 0.0
08 19:35 SW 15 10.00 Fair CLR 68 46.4 46% 29.72 0.0
08 19:15 S 16 G 25 10.00 A Few Clouds FEW110 69.8 46.4 43% 29.72 0.0
08 18:55 S 14 G 22 10.00 A Few Clouds FEW120 69.8 44.6 40% 29.72 0.0
08 18:35 S 15 10.00 Fair CLR 71.6 42.8 36% 29.71 0.0
08 18:15 SW 17 9.00 Fair CLR 73.4 42.8 33% 29.72 0.0
08 17:55 S 14 10.00 Fair CLR 73.4 41 31% 29.72 0.0
08 17:35 S 10 G 18 10.00 Fair CLR 71.6 41 33% 29.73 0.0
08 17:15 SW 9 G 17 10.00 Fair CLR 73.4 42.8 33% 29.73 0.0
08 16:55 SW 10 10.00 Fair CLR 73.4 42.8 33% 29.73 0.0
08 16:35 Calm 10.00 Fair CLR 73.4 39.2 29% 29.74 0.0
08 16:15 SW 6 10.00 A Few Clouds FEW110 75.2 41 29% 77 29.75 0.0
08 15:55 S 7 10.00 Fair CLR 73.4 39.2 29% 29.75 0.0
08 15:35 Vrbl 3 10.00 A Few Clouds FEW090 73.4 37.4 27% 29.76 0.0
08 15:15 Vrbl 5 10.00 A Few Clouds FEW095 73.4 39.2 29% 29.77 0.0
08 14:55 SW 8 10.00 Fair CLR 71.6 41 33% 29.77 0.0
08 14:35 Calm 10.00 Fair CLR 73.4 39.2 29% 29.78 0.0
08 14:15 Vrbl 5 10.00 Fair CLR 71.6 37.4 29% 29.78 0.0
08 13:55 S 10 10.00 Fair CLR 71.6 41 33% 29.78 0.0
08 13:35 Vrbl 5 10.00 Fair CLR 71.6 37.4 29% 29.79 0.0
08 13:15 NE 6 10.00 Fair CLR 71.6 37.4 29% 29.8 0.0
08 12:55 E 3 10.00 Fair CLR 69.8 35.6 29% 29.81 0.0
08 12:35 S 9 10.00 A Few Clouds FEW120 69.8 42.8 38% 29.82 0.0
08 12:15 S 8 10.00 Partly Cloudy SCT120 69.8 44.6 40% 29.82 0.0
08 11:55 S 7 10.00 Partly Cloudy SCT120 68 46.4 46% 29.82 0.0
08 11:35 Vrbl 5 10.00 Fair CLR 66.2 46.4 49% 29.82 0.0
08 11:15 Vrbl 3 10.00 Partly Cloudy SCT110 62.6 46.4 56% 29.82 0.0
08 10:55 S 3 10.00 A Few Clouds FEW110 62.6 44.6 52% 29.82 0.0
08 10:35 S 6 10.00 Fair CLR 60.8 46.4 59% 29.82 0.0
08 10:15 S 3 10.00 A Few Clouds FEW090 FEW110 57.2 50 77% 29.81 0.0
08 09:55 Calm 10.00 Partly Cloudy SCT090 55.4 48.2 77% 29.83 0.0
08 09:35 S 6 9.00 Partly Cloudy FEW050 FEW060 SCT090 53.6 48.2 82% 29.84 0.0
08 09:15 Calm 10.00 Mostly Cloudy FEW075 BKN090 53.6 44.6 72% 29.84 0.0
08 08:55 Calm 10.00 Mostly Cloudy FEW065 BKN090 53.6 44.6 72% 29.84 0.0
08 08:35 Calm 10.00 Mostly Cloudy BKN090 53.6 42.8 67% 29.84 0.0
08 08:15 Calm 10.00 Mostly Cloudy FEW049 FEW065 BKN095 51.8 44.6 77% 29.84 0.0
08 07:55 Calm 10.00 A Few Clouds FEW100 51.8 42.8 72% 29.83 0.0
08 07:35 SW 5 10.00 Mostly Cloudy BKN100 50 42.8 76% 49 29.84 0.0
08 07:15 Calm 10.00 Overcast OVC100 50 41 71% 29.84 0.0
08 06:55 N 5 10.00 Mostly Cloudy BKN100 50 41 71% 49 29.83 0.0
08 06:35 N 7 10.00 Mostly Cloudy SCT090 BKN110 48.2 41 76% 46 29.81 0.0
08 06:15 N 10 10.00 Overcast OVC090 48.2 41 76% 44 29.81 0.0
08 05:55 NE 6 G 13 10.00 Overcast OVC090 48.2 41 76% 46 29.81 0.0
08 05:35 N 8 10.00 Overcast FEW075 BKN090 OVC110 48.2 39.2 71% 45 29.81 0.0
08 05:15 NE 6 10.00 Mostly Cloudy SCT090 BKN110 46.4 41 82% 44 29.81 0.0
08 04:55 N 5 10.00 Mostly Cloudy FEW080 SCT095 BKN110 48.2 41 76% 47 29.81 0.0
08 04:35 NE 6 10.00 Overcast SCT080 OVC100 48.2 39.2 71% 46 29.83 0.0
08 04:15 Calm 10.00 Mostly Cloudy BKN100 BKN120 48.2 39.2 71% 29.84 0.0
08 03:55 Calm 10.00 Mostly Cloudy BKN100 BKN120 48.2 39.2 71% 29.83 0.0
08 03:35 N 6 10.00 Mostly Cloudy BKN110 48.2 39.2 71% 46 29.83 0.0
08 03:15 NE 6 10.00 Partly Cloudy SCT100 48.2 41 76% 46 29.83 0.0
08 02:55 NE 3 10.00 Fair CLR 48.2 41 76% 29.83 0.0
08 02:35 Calm 10.00 Fair CLR 48.2 41 76% 29.83 0.0
08 02:15 Calm 10.00 Mostly Cloudy BKN110 50 41 71% 29.84 0.0
08 01:55 Calm 10.00 Overcast FEW075 OVC110 50 41 71% 29.83 0.0
08 01:35 Calm 10.00 Overcast FEW027 SCT075 OVC100 51.8 42.8 72% 29.84 0.0
08 01:15 Calm 10.00 Overcast OVC110 50 42.8 76% 29.85 0.0
08 00:55 Calm 10.00 Mostly Cloudy BKN110 50 41 71% 29.84 0.0
08 00:35 Calm 10.00 Mostly Cloudy BKN110 48.2 41 76% 29.85 0.0
08 00:15 Calm 10.00 A Few Clouds FEW110 50 39.2 67% 29.85 0.0
07 23:55 Calm 10.00 Fair CLR 51.8 41 67% 29.84 0.0
07 23:35 Calm 10.00 Fair CLR 51.8 41 67% 29.85 0.0
07 23:15 Calm 10.00 Fair CLR 53.6 41 63% 29.85 0.0
07 22:55 N 6 10.00 Fair CLR 59 33.8 39% 29.85 0.0
07 22:35 N 3 10.00 A Few Clouds FEW120 60.8 35.6 39% 29.85 0.0
07 22:15 N 3 10.00 Fair CLR 59 35.6 42% 29.84 0.0
07 21:55 N 3 10.00 Fair CLR 60.8 33.8 36% 29.83 0.0
07 21:35 NE 3 10.00 Fair CLR 60.8 37.4 42% 29.83 0.0
07 21:15 N 5 10.00 Fair CLR 62.6 32 32% 29.82 0.0
07 20:55 N 6 10.00 Fair CLR 64.4 30.2 28% 29.81 0.0
07 20:35 N 6 10.00 Fair CLR 64.4 28.4 26% 29.8 0.0
07 20:15 N 7 10.00 Fair CLR 66.2 28.4 24% 29.8 0.0
07 19:55 N 6 10.00 Fair CLR 68 28.4 23% 29.79 0.0
07 19:35 NW 12 10.00 Fair CLR 69.8 26.6 20% 29.78 0.0
07 19:15 NW 10 G 21 10.00 Fair CLR 71.6 26.6 19% 29.78 0.0
07 18:55 NW 12 G 21 10.00 Fair CLR 73.4 26.6 17% 29.78 0.0
07 18:35 NW 16 10.00 Fair CLR 73.4 28.4 19% 29.78 0.0
07 18:15 NW 16 G 22 10.00 Fair CLR 73.4 28.4 19% 29.77 0.0
07 17:55 W 18 G 25 10.00 A Few Clouds FEW100 73.4 28.4 19% 29.77 0.0
07 17:35 W 16 G 24 10.00 Partly Cloudy SCT100 75.2 33.8 22% 76 29.77 0.0
07 17:15 Vrbl 7 G 18 10.00 Partly Cloudy SCT095 73.4 37.4 27% 29.77 0.0
07 16:55 SW 18 G 25 10.00 Fair CLR 71.6 37.4 29% 29.78 0.0
07 16:35 SW 14 G 23 10.00 A Few Clouds FEW095 73.4 39.2 29% 29.78 0.0
07 16:15 SW 18 10.00 Partly Cloudy SCT095 71.6 37.4 29% 29.79 0.0
07 15:55 SW 14 10.00 Partly Cloudy SCT095 69.8 39.2 33% 29.81 0.0
07 15:35 W 14 G 21 10.00 A Few Clouds FEW090 71.6 37.4 29% 29.82 0.0
07 15:15 W 9 G 25 10.00 Partly Cloudy SCT080 SCT100 71.6 37.4 29% 29.83 0.0
07 14:55 SW 18 G 28 10.00 Mostly Cloudy BKN080 68 37.4 33% 29.84 0.0
07 14:35 W 15 G 26 10.00 Mostly Cloudy BKN080 69.8 37.4 31% 29.84 0.0
07 14:15 SW 18 G 25 10.00 Partly Cloudy SCT080 68 37.4 33% 29.84 0.0
07 13:55 SW 14 G 25 10.00 Fair CLR 68 37.4 33% 29.85 0.0
07 13:35 SW 17 G 23 10.00 Fair CLR 68 39.2 35% 29.86 0.0
07 13:15 SW 22 10.00 Fair and Breezy CLR 68 37.4 33% 29.87 0.0
07 12:55 SW 16 G 24 10.00 Fair CLR 66.2 37.4 35% 29.87 0.0
07 12:35 SW 15 G 24 10.00 Fair CLR 66.2 37.4 35% 29.88 0.0
07 12:15 SW 14 10.00 Fair CLR 64.4 37.4 37% 29.9 0.0
07 11:55 SW 16 10.00 Fair CLR 64.4 39.2 40% 29.91 0.0
07 11:35 SW 18 10.00 Fair CLR 64.4 39.2 40% 29.92 0.0
07 11:15 SW 15 10.00 Fair CLR 62.6 41 45% 29.92 0.0
07 10:55 SW 15 G 22 10.00 Fair CLR 62.6 41 45% 29.92 0.0
07 10:35 W 12 G 18 10.00 Fair CLR 60.8 41 48% 29.93 0.0
07 10:15 SW 15 10.00 Fair CLR 59 41 51% 29.94 0.0
07 09:55 W 12 G 20 10.00 Fair CLR 59 42.8 55% 29.94 0.0
07 09:35 W 14 10.00 Fair CLR 57.2 42.8 59% 29.94 0.0
07 09:15 W 14 G 20 10.00 Fair CLR 55.4 42.8 63% 29.95 0.0
07 08:55 W 12 10.00 Fair CLR 53.6 42.8 67% 29.95 0.0
07 08:35 W 10 G 16 10.00 Fair CLR 51.8 42.8 72% 29.96 0.0
07 08:15 SW 9 10.00 Fair CLR 50 42.8 76% 47 29.96 0.0
07 07:55 S 7 10.00 Fair CLR 46.4 41 82% 43 29.96 0.0
07 07:35 S 8 10.00 Fair CLR 44.6 39.2 81% 41 29.96 0.0
07 07:15 S 3 10.00 Fair CLR 41 37.4 87% 29.96 0.0
07 06:55 S 3 10.00 Fair CLR 39.2 35.6 87% 29.96 0.0
07 06:35 S 5 10.00 Fair CLR 37.4 33.8 87% 34 29.95 0.0
07 06:15 S 5 10.00 Fair CLR 39.2 33.8 81% 36 29.95 0.0
07 05:55 S 5 10.00 Fair CLR 39.2 33.8 81% 36 29.95 0.0
07 05:35 S 5 10.00 Fair CLR 39.2 33.8 81% 36 29.95 0.0
07 05:15 S 5 10.00 Fair CLR 39.2 33.8 81% 36 29.96 0.0
07 04:55 S 5 10.00 Fair CLR 37.4 33.8 87% 34 29.96 0.0
07 04:35 S 5 10.00 Fair CLR 37.4 33.8 87% 34 29.96 0.0
07 04:15 S 3 10.00 Fair CLR 37.4 33.8 87% 29.97 0.0
07 03:55 Calm 10.00 Fair CLR 35.6 32 87% 29.97 0.0
07 03:35 Calm 10.00 Fair CLR 35.6 32 87% 29.98 0.0
07 03:15 Calm 10.00 Fair CLR 37.4 32 81% 29.99 0.0
07 02:55 Calm 10.00 Fair CLR 37.4 33.8 87% 29.98 0.0
07 02:35 Calm 10.00 Partly Cloudy FEW080 SCT090 41 32 70% 29.99 0.0
07 02:15 Calm 10.00 Overcast FEW080 OVC095 39.2 33.8 81% 30 0.0
07 01:55 Calm 10.00 Overcast OVC095 37.4 32 81% 30.01 0.0
07 01:35 SW 3 10.00 Mostly Cloudy BKN090 35.6 32 87% 30.01 0.0
07 01:15 Calm 10.00 Partly Cloudy SCT085 37.4 32 81% 30.01 0.0
07 00:55 Calm 10.00 Fair CLR 37.4 32 81% 30.02 0.0
07 00:35 Calm 10.00 Fair CLR 37.4 32 81% 30.02 0.0
07 00:15 Calm 10.00 Fair CLR 35.6 32 87% 30.02 0.0
06 23:55 S 3 10.00 Fair CLR 37.4 33.8 87% 30.03 0.0
06 23:35 Calm 10.00 Fair CLR 39.2 33.8 81% 30.03 0.0
06 23:15 Calm 10.00 Fair CLR 39.2 33.8 81% 30.03 0.0
06 22:55 Calm 10.00 Fair CLR 39.2 33.8 81% 30.03 0.0
06 22:35 SW 3 10.00 Fair CLR 41 33.8 76% 30.04 0.0
06 22:15 Calm 10.00 Fair CLR 42.8 32 66% 30.04 0.0
06 21:55 Calm 10.00 Fair CLR 42.8 33.8 71% 30.04 0.0
06 21:35 Calm 10.00 Fair CLR 46.4 33.8 62% 30.03 0.0
06 21:15 S 3 10.00 Fair CLR 48.2 30.2 50% 30.03 0.0
06 20:55 Calm 10.00 Fair CLR 50 32 50% 30.02 0.0
06 20:35 Calm 10.00 Fair CLR 51.8 24.8 35% 30.02 0.0
06 20:15 N 5 10.00 Fair CLR 55.4 23 28% 30.02 0.0
06 19:55 N 5 10.00 Fair CLR 57.2 23 27% 30.02 0.0
06 19:35 N 7 10.00 Fair CLR 59 21.2 23% 30.02 0.0
06 19:15 NW 12 10.00 Fair CLR 59 21.2 23% 30.02 0.0
06 18:55 NW 9 G 15 10.00 Fair CLR 59 21.2 23% 30.03 0.0
06 18:35 NW 10 G 16 10.00 A Few Clouds FEW090 59 21.2 23% 30.03 0.0
06 18:15 NW 13 G 20 10.00 Mostly Cloudy BKN090 60.8 21.2 22% 30.03 0.0
06 17:55 NW 10 G 17 10.00 Mostly Cloudy BKN090 60.8 21.2 22% 30.04 0.0
06 17:35 N 13 10.00 Mostly Cloudy BKN090 60.8 21.2 22% 30.04 0.0
06 17:15 NW 9 G 16 10.00 Fair CLR 59 21.2 23% 30.04 0.0
06 16:55 NW 14 G 20 10.00 A Few Clouds FEW090 60.8 23 23% 30.05 0.0
06 16:35 NW 15 10.00 Partly Cloudy SCT085 59 21.2 23% 30.05 0.0
06 16:15 N 12 10.00 Mostly Cloudy BKN085 59 21.2 23% 30.06 0.0
06 15:55 N 13 10.00 Mostly Cloudy BKN085 57.2 21.2 25% 30.07 0.0
06 15:35 NW 12 10.00 Mostly Cloudy BKN080 57.2 21.2 25% 30.07 0.0
Date Time (cdt) Wind (mph) Vis. (mi.) Weather Sky Cond. Air Dwpt Max. Min. Relative Humidity Wind Chill (°F) Heat Index (°F) altimeter (in) sea level (mb) 1 hr 3 hr 6 hr
6 hour
Temperature (ºF) Pressure Precipitation (in)